Aviation Digital Data Service (ADDS)

Output produced by METARs form (0204 UTC 28 April 2015)
found at http://www.aviationweather.gov/adds/metars/
 
KCXY 280156Z AUTO 30006KT 10SM FEW046 BKN055 10/03 A2986 RMK AO2 SLP112 T01000033
KCXY 280056Z AUTO 31008KT 10SM BKN048 OVC060 10/04 A2985 RMK AO2 RAB39E55 SLP109 P0000 T01000044
KCXY 272356Z 30008KT 10SM BKN055 BKN065 BKN090 12/02 A2982 RMK AO2 SLP101 T01170017 10150 20117 53018
KCXY 272256Z 28013KT 10SM BKN070 12/02 A2980 RMK AO2 SLP094 T01220017
KCXY 272156Z 31010KT 10SM BKN070 OVC095 13/M01 A2979 RMK AO2 SLP089 T01331006
KCXY 272056Z 29012KT 10SM BKN065 OVC080 13/M01 A2977 RMK AO2 SLP083 T01281006 55003
KCXY 271956Z 34009KT 10SM BKN065 OVC080 13/M02 A2976 RMK AO2 SLP081 T01331017
KCXY 271856Z 30011KT 10SM FEW060 OVC080 14/M02 A2977 RMK AO2 SLP081 T01391017
KCXY 271756Z 31011KT 10SM OVC080 14/00 A2978 RMK AO2 SLP086 T01440000 10144 20083 50001
KCXY 271556Z 29010KT 10SM OVC060 12/M01 A2978 RMK AO2 SLP088 T01171006
KCXY 271456Z 35009KT 10SM SCT050 BKN070 13/M01 A2978 RMK AO2 SLP084 T01331006 51004
KCXY 271356Z 32009KT 10SM BKN075 11/00 A2978 RMK AO2 SLP084 T01110000
KCXY 271256Z 29008KT 10SM OVC075 11/01 A2977 RMK AO2 SLP082 T01060006
KCXY 271156Z 28005KT 10SM OVC070 08/01 A2976 RMK AO2 SLP081 T00830011 10083 20039 53008
KCXY 271056Z 28003KT 10SM OVC075 07/00 A2975 RMK AO2 SLP076 T00720000
KCXY 270956Z AUTO 28004KT 10SM OVC075 07/M01 A2974 RMK AO2 SLP072 T00721011
KCXY 270856Z AUTO 27004KT 10SM OVC075 07/M01 A2974 RMK AO2 SLP072 T00721011 56005
KCXY 270756Z AUTO 25004KT 10SM OVC080 06/M01 A2975 RMK AO2 SLP075 T00611006
KCXY 270656Z AUTO 24005KT 10SM OVC080 05/M01 A2975 RMK AO2 SLP075 T00501006
KCXY 270556Z AUTO 25003KT 10SM FEW080 04/M01 A2976 RMK AO2 SLP078 T00441011 10139 20044 58002
KCXY 270456Z AUTO 24004KT 10SM CLR 06/M01 A2976 RMK AO2 SLP081 T00561011 401670033
KCXY 270356Z AUTO 00000KT 10SM CLR 08/M02 A2977 RMK AO2 SLP081 T00831022
KCXY 270256Z AUTO 01005KT 10SM CLR 11/M03 A2976 RMK AO2 SLP079 T01111033 53017
KCXY 270156Z AUTO 01008KT 10SM CLR 12/M03 A2975 RMK AO2 SLP074 T01221033
KCXY 270056Z AUTO 02004KT 10SM CLR 13/M03 A2972 RMK AO2 SLP066 T01331033
KCXY 262356Z 36006KT 10SM FEW090 14/M03 A2971 RMK AO2 SLP062 T01391028 10167 20139 53007
KCXY 262256Z 36007KT 10SM SCT080 16/M03 A2969 RMK AO2 SLP057 T01561033
KCXY 262156Z 31008KT 10SM SCT080 17/M03 A2968 RMK AO2 SLP054 T01671028
KCXY 262056Z 34011KT 10SM BKN075 17/M03 A2969 RMK AO2 SLP055 T01671028 58009
KCXY 261956Z 32006KT 10SM SCT075 16/M02 A2970 RMK AO2 SLP058 T01561022
KCXY 261856Z 34007G15KT 10SM FEW078 16/M02 A2971 RMK AO2 SLP062 T01561017
KCXY 261756Z 30011G16KT 10SM CLR 14/M01 A2971 RMK AO2 SLP064 T01441006 10144 20078 58009
KCXY 261656Z 30011KT 10SM CLR 13/M02 A2972 RMK AO2 SLP067 T01331017
KCXY 261556Z 30007KT 10SM CLR 13/M01 A2973 RMK AO2 SLP071 T01281006
KCXY 261456Z 36009KT 10SM CLR 12/M03 A2974 RMK AO2 SLP073 T01221028 51007